ePrivacy and GPDR Cookie Consent by Cookie Consent
EmailTwitter


Surface observations / Europe / LIRF (16242)

Regions: Quebec | Canada | USA | Europe | France | UK | Elsewhere
Station
Display
Info & Location for LIRF (16242) | Help decoding METAR

Weather Conditions observed on 2022/01/17 at 21:50 UTC (LIRF)

Temperature: 4.0 Celsius.

Dewpoint: 4.0 Celsius.

Relative Humidity: 100%

Winds: Northwest at 4 km/h or 2 knots.

Mean Sea level Pressure: 102.70 kilopascals.

Coded METAR:

LIRF 172150Z 32002KT CAVOK 04/04 Q1027 NOSIG=